sensor_id;sensor_type;location;lat;lon;timestamp;temperature;humidity
9816;DHT22;4947;44.526;11.360;2023-03-01T00:01:17;5.00;99.90
9816;DHT22;4947;44.526;11.360;2023-03-01T00:03:46;5.00;99.90
9816;DHT22;4947;44.526;11.360;2023-03-01T00:06:14;5.00;99.90
9816;DHT22;4947;44.526;11.360;2023-03-01T00:08:43;5.10;99.90
9816;DHT22;4947;44.526;11.360;2023-03-01T00:11:13;5.10;99.90
9816;DHT22;4947;44.526;11.360;2023-03-01T00:13:42;5.00;99.90
9816;DHT22;4947;44.526;11.360;2023-03-01T00:16:12;5.00;99.90
9816;DHT22;4947;44.526;11.360;2023-03-01T00:18:40;4.90;99.90
9816;DHT22;4947;44.526;11.360;2023-03-01T00:21:10;4.90;99.90
9816;DHT22;4947;44.526;11.360;2023-03-01T00:23:38;4.90;99.90
9816;DHT22;4947;44.526;11.360;2023-03-01T00:26:10;4.80;99.90
9816;DHT22;4947;44.526;11.360;2023-03-01T00:28:38;4.80;99.90
9816;DHT22;4947;44.526;11.360;2023-03-01T00:31:07;4.70;99.90
9816;DHT22;4947;44.526;11.360;2023-03-01T00:33:35;4.70;99.90
9816;DHT22;4947;44.526;11.360;2023-03-01T00:36:04;4.70;99.90
9816;DHT22;4947;44.526;11.360;2023-03-01T00:38:36;4.70;99.90
9816;DHT22;4947;44.526;11.360;2023-03-01T00:41:04;4.70;99.90
9816;DHT22;4947;44.526;11.360;2023-03-01T00:43:32;4.60;99.90
9816;DHT22;4947;44.526;11.360;2023-03-01T00:46:02;4.70;99.90
9816;DHT22;4947;44.526;11.360;2023-03-01T00:48:30;4.60;99.90
9816;DHT22;4947;44.526;11.360;2023-03-01T00:51:04;4.60;99.90
9816;DHT22;4947;44.526;11.360;2023-03-01T00:53:32;4.60;99.90
9816;DHT22;4947;44.526;11.360;2023-03-01T00:56:02;4.60;99.90
9816;DHT22;4947;44.526;11.360;2023-03-01T00:58:30;4.60;99.90
9816;DHT22;4947;44.526;11.360;2023-03-01T01:00:57;4.50;99.90
9816;DHT22;4947;44.526;11.360;2023-03-01T01:03:25;4.60;99.90
9816;DHT22;4947;44.526;11.360;2023-03-01T01:05:53;4.50;99.90
9816;DHT22;4947;44.526;11.360;2023-03-01T01:08:21;4.60;99.90
9816;DHT22;4947;44.526;11.360;2023-03-01T01:10:48;4.60;99.90
9816;DHT22;4947;44.526;11.360;2023-03-01T01:13:18;4.60;99.90
9816;DHT22;4947;44.526;11.360;2023-03-01T01:15:46;4.60;99.90
9816;DHT22;4947;44.526;11.360;2023-03-01T01:18:14;4.60;99.90
9816;DHT22;4947;44.526;11.360;2023-03-01T01:20:41;4.60;99.90
9816;DHT22;4947;44.526;11.360;2023-03-01T01:23:09;4.60;99.90
9816;DHT22;4947;44.526;11.360;2023-03-01T01:25:37;4.60;99.90
9816;DHT22;4947;44.526;11.360;2023-03-01T01:28:05;4.60;99.90
9816;DHT22;4947;44.526;11.360;2023-03-01T01:30:34;4.60;99.90
9816;DHT22;4947;44.526;11.360;2023-03-01T01:33:02;4.60;99.90
9816;DHT22;4947;44.526;11.360;2023-03-01T01:35:31;4.60;99.90
9816;DHT22;4947;44.526;11.360;2023-03-01T01:37:58;4.60;99.90
9816;DHT22;4947;44.526;11.360;2023-03-01T01:40:26;4.60;99.90
9816;DHT22;4947;44.526;11.360;2023-03-01T01:42:54;4.60;99.90
9816;DHT22;4947;44.526;11.360;2023-03-01T01:45:34;4.60;99.90
9816;DHT22;4947;44.526;11.360;2023-03-01T01:48:04;4.60;99.90
9816;DHT22;4947;44.526;11.360;2023-03-01T01:50:35;4.50;99.90
9816;DHT22;4947;44.526;11.360;2023-03-01T01:53:09;4.50;99.90
9816;DHT22;4947;44.526;11.360;2023-03-01T01:55:41;4.60;99.90
9816;DHT22;4947;44.526;11.360;2023-03-01T01:58:11;4.60;99.90
9816;DHT22;4947;44.526;11.360;2023-03-01T02:00:45;4.60;99.90
9816;DHT22;4947;44.526;11.360;2023-03-01T02:03:15;4.60;99.90
9816;DHT22;4947;44.526;11.360;2023-03-01T02:05:47;4.60;99.90
9816;DHT22;4947;44.526;11.360;2023-03-01T02:08:20;4.60;99.90
9816;DHT22;4947;44.526;11.360;2023-03-01T02:10:49;4.60;99.90
9816;DHT22;4947;44.526;11.360;2023-03-01T02:13:17;4.60;99.90
9816;DHT22;4947;44.526;11.360;2023-03-01T02:15:46;4.60;99.90
9816;DHT22;4947;44.526;11.360;2023-03-01T02:18:17;4.50;99.90
9816;DHT22;4947;44.526;11.360;2023-03-01T02:21:03;4.50;99.90
9816;DHT22;4947;44.526;11.360;2023-03-01T02:23:33;4.50;99.90
9816;DHT22;4947;44.526;11.360;2023-03-01T02:26:07;4.50;99.90
9816;DHT22;4947;44.526;11.360;2023-03-01T02:28:38;4.50;99.90
9816;DHT22;4947;44.526;11.360;2023-03-01T02:31:08;4.40;99.90
9816;DHT22;4947;44.526;11.360;2023-03-01T02:33:54;4.50;99.90
9816;DHT22;4947;44.526;11.360;2023-03-01T02:36:24;4.50;99.90
9816;DHT22;4947;44.526;11.360;2023-03-01T02:38:55;4.50;99.90
9816;DHT22;4947;44.526;11.360;2023-03-01T02:41:25;4.50;99.90
9816;DHT22;4947;44.526;11.360;2023-03-01T02:43:55;4.50;99.90
9816;DHT22;4947;44.526;11.360;2023-03-01T02:46:27;4.40;99.90
9816;DHT22;4947;44.526;11.360;2023-03-01T02:48:57;4.40;99.90
9816;DHT22;4947;44.526;11.360;2023-03-01T02:51:43;4.40;99.90
9816;DHT22;4947;44.526;11.360;2023-03-01T02:54:21;4.40;99.90
9816;DHT22;4947;44.526;11.360;2023-03-01T02:56:50;4.40;99.90
9816;DHT22;4947;44.526;11.360;2023-03-01T02:59:21;4.40;99.90
9816;DHT22;4947;44.526;11.360;2023-03-01T03:01:49;4.40;99.90
9816;DHT22;4947;44.526;11.360;2023-03-01T03:04:18;4.50;99.90
9816;DHT22;4947;44.526;11.360;2023-03-01T03:06:47;4.50;99.90
9816;DHT22;4947;44.526;11.360;2023-03-01T03:09:15;4.50;99.90
9816;DHT22;4947;44.526;11.360;2023-03-01T03:11:43;4.50;99.90
9816;DHT22;4947;44.526;11.360;2023-03-01T03:14:13;4.50;99.90
9816;DHT22;4947;44.526;11.360;2023-03-01T03:16:45;4.40;99.90
9816;DHT22;4947;44.526;11.360;2023-03-01T03:19:13;4.40;99.90
9816;DHT22;4947;44.526;11.360;2023-03-01T03:21:40;4.40;99.90
9816;DHT22;4947;44.526;11.360;2023-03-01T03:24:08;4.30;99.90
9816;DHT22;4947;44.526;11.360;2023-03-01T03:26:36;4.20;99.90
9816;DHT22;4947;44.526;11.360;2023-03-01T03:29:04;4.10;99.90
9816;DHT22;4947;44.526;11.360;2023-03-01T03:31:32;4.10;99.90
9816;DHT22;4947;44.526;11.360;2023-03-01T03:34:01;4.10;99.90
9816;DHT22;4947;44.526;11.360;2023-03-01T03:36:32;4.00;99.90
9816;DHT22;4947;44.526;11.360;2023-03-01T03:39:00;4.00;99.90
9816;DHT22;4947;44.526;11.360;2023-03-01T03:41:27;4.00;99.90
9816;DHT22;4947;44.526;11.360;2023-03-01T03:46:26;4.00;99.90
9816;DHT22;4947;44.526;11.360;2023-03-01T03:48:53;4.00;99.90
9816;DHT22;4947;44.526;11.360;2023-03-01T03:51:23;3.90;99.90
9816;DHT22;4947;44.526;11.360;2023-03-01T03:53:50;3.90;99.90
9816;DHT22;4947;44.526;11.360;2023-03-01T03:56:18;3.90;99.90
9816;DHT22;4947;44.526;11.360;2023-03-01T03:58:46;3.90;99.90
9816;DHT22;4947;44.526;11.360;2023-03-01T04:01:13;3.90;99.90
9816;DHT22;4947;44.526;11.360;2023-03-01T04:03:42;3.90;99.90
9816;DHT22;4947;44.526;11.360;2023-03-01T04:06:12;3.90;99.90
9816;DHT22;4947;44.526;11.360;2023-03-01T04:08:41;3.80;99.90
9816;DHT22;4947;44.526;11.360;2023-03-01T04:11:09;3.80;99.90
9816;DHT22;4947;44.526;11.360;2023-03-01T04:13:51;3.80;99.90
9816;DHT22;4947;44.526;11.360;2023-03-01T04:16:43;3.80;99.90
9816;DHT22;4947;44.526;11.360;2023-03-01T04:19:11;3.80;99.90
9816;DHT22;4947;44.526;11.360;2023-03-01T04:21:40;3.80;99.90
9816;DHT22;4947;44.526;11.360;2023-03-01T04:24:10;3.80;99.90
9816;DHT22;4947;44.526;11.360;2023-03-01T04:26:38;3.80;99.90
9816;DHT22;4947;44.526;11.360;2023-03-01T04:29:05;3.80;99.90
9816;DHT22;4947;44.526;11.360;2023-03-01T04:31:33;3.80;99.90
9816;DHT22;4947;44.526;11.360;2023-03-01T04:34:00;3.80;99.90
9816;DHT22;4947;44.526;11.360;2023-03-01T04:36:28;3.80;99.90
9816;DHT22;4947;44.526;11.360;2023-03-01T04:38:56;3.80;99.90
9816;DHT22;4947;44.526;11.360;2023-03-01T04:41:25;3.80;99.90
9816;DHT22;4947;44.526;11.360;2023-03-01T04:43:53;3.80;99.90
9816;DHT22;4947;44.526;11.360;2023-03-01T04:46:21;3.80;99.90
9816;DHT22;4947;44.526;11.360;2023-03-01T04:48:48;3.80;99.90
9816;DHT22;4947;44.526;11.360;2023-03-01T04:51:17;3.80;99.90
9816;DHT22;4947;44.526;11.360;2023-03-01T04:53:45;3.80;99.90
9816;DHT22;4947;44.526;11.360;2023-03-01T04:56:13;3.70;99.90
9816;DHT22;4947;44.526;11.360;2023-03-01T04:58:42;3.70;99.90
9816;DHT22;4947;44.526;11.360;2023-03-01T05:01:12;3.70;99.90
9816;DHT22;4947;44.526;11.360;2023-03-01T05:03:42;3.70;99.90
9816;DHT22;4947;44.526;11.360;2023-03-01T05:06:10;3.60;99.90
9816;DHT22;4947;44.526;11.360;2023-03-01T05:08:38;3.60;99.90
9816;DHT22;4947;44.526;11.360;2023-03-01T05:11:06;3.60;99.90
9816;DHT22;4947;44.526;11.360;2023-03-01T05:13:35;3.60;99.90
9816;DHT22;4947;44.526;11.360;2023-03-01T05:16:06;3.60;99.90
9816;DHT22;4947;44.526;11.360;2023-03-01T05:18:36;3.60;99.90
9816;DHT22;4947;44.526;11.360;2023-03-01T05:21:06;3.50;99.90
9816;DHT22;4947;44.526;11.360;2023-03-01T05:23:34;3.50;99.90
9816;DHT22;4947;44.526;11.360;2023-03-01T05:26:04;3.50;99.90
9816;DHT22;4947;44.526;11.360;2023-03-01T05:28:32;3.50;99.90
9816;DHT22;4947;44.526;11.360;2023-03-01T05:31:00;3.50;99.90
9816;DHT22;4947;44.526;11.360;2023-03-01T05:33:30;3.40;99.90
9816;DHT22;4947;44.526;11.360;2023-03-01T05:36:00;3.40;99.90
9816;DHT22;4947;44.526;11.360;2023-03-01T05:38:27;3.40;99.90
9816;DHT22;4947;44.526;11.360;2023-03-01T05:40:55;3.40;99.90
9816;DHT22;4947;44.526;11.360;2023-03-01T05:43:23;3.40;99.90
9816;DHT22;4947;44.526;11.360;2023-03-01T05:45:50;3.40;99.90
9816;DHT22;4947;44.526;11.360;2023-03-01T05:48:18;3.30;99.90
9816;DHT22;4947;44.526;11.360;2023-03-01T05:50:47;3.30;99.90
9816;DHT22;4947;44.526;11.360;2023-03-01T05:53:17;3.30;99.90
9816;DHT22;4947;44.526;11.360;2023-03-01T05:55:45;3.30;99.90
9816;DHT22;4947;44.526;11.360;2023-03-01T05:58:15;3.30;99.90
9816;DHT22;4947;44.526;11.360;2023-03-01T06:00:45;3.30;99.90
9816;DHT22;4947;44.526;11.360;2023-03-01T06:03:14;3.30;99.90
9816;DHT22;4947;44.526;11.360;2023-03-01T06:05:43;3.20;99.90
9816;DHT22;4947;44.526;11.360;2023-03-01T06:08:12;3.20;99.90
9816;DHT22;4947;44.526;11.360;2023-03-01T06:10:40;3.30;99.90
9816;DHT22;4947;44.526;11.360;2023-03-01T06:13:09;3.20;99.90
9816;DHT22;4947;44.526;11.360;2023-03-01T06:15:36;3.20;99.90
9816;DHT22;4947;44.526;11.360;2023-03-01T06:18:04;3.20;99.90
9816;DHT22;4947;44.526;11.360;2023-03-01T06:20:32;3.20;99.90
9816;DHT22;4947;44.526;11.360;2023-03-01T06:22:59;3.30;99.90
9816;DHT22;4947;44.526;11.360;2023-03-01T06:25:32;3.30;99.90
9816;DHT22;4947;44.526;11.360;2023-03-01T06:27:59;3.20;99.90
9816;DHT22;4947;44.526;11.360;2023-03-01T06:30:27;3.20;99.90
9816;DHT22;4947;44.526;11.360;2023-03-01T06:32:54;3.20;99.90
9816;DHT22;4947;44.526;11.360;2023-03-01T06:35:26;3.30;99.90
9816;DHT22;4947;44.526;11.360;2023-03-01T06:37:55;3.20;99.90
9816;DHT22;4947;44.526;11.360;2023-03-01T06:40:23;3.20;99.90
9816;DHT22;4947;44.526;11.360;2023-03-01T06:42:53;3.20;99.90
9816;DHT22;4947;44.526;11.360;2023-03-01T06:45:21;3.30;99.90
9816;DHT22;4947;44.526;11.360;2023-03-01T06:47:49;3.20;99.90
9816;DHT22;4947;44.526;11.360;2023-03-01T06:50:17;3.30;99.90
9816;DHT22;4947;44.526;11.360;2023-03-01T06:52:46;3.30;99.90
9816;DHT22;4947;44.526;11.360;2023-03-01T06:55:14;3.30;99.90
9816;DHT22;4947;44.526;11.360;2023-03-01T06:57:41;3.30;99.90
9816;DHT22;4947;44.526;11.360;2023-03-01T07:00:14;3.30;99.90
9816;DHT22;4947;44.526;11.360;2023-03-01T07:02:43;3.30;99.90
9816;DHT22;4947;44.526;11.360;2023-03-01T07:05:11;3.30;99.90
9816;DHT22;4947;44.526;11.360;2023-03-01T07:07:39;3.30;99.90
9816;DHT22;4947;44.526;11.360;2023-03-01T07:10:08;3.30;99.90
9816;DHT22;4947;44.526;11.360;2023-03-01T07:12:36;3.30;99.90
9816;DHT22;4947;44.526;11.360;2023-03-01T07:15:05;3.30;99.90
9816;DHT22;4947;44.526;11.360;2023-03-01T07:17:36;3.30;99.90
9816;DHT22;4947;44.526;11.360;2023-03-01T07:20:06;3.30;99.90
9816;DHT22;4947;44.526;11.360;2023-03-01T07:22:34;3.30;99.90
9816;DHT22;4947;44.526;11.360;2023-03-01T07:25:01;3.30;99.90
9816;DHT22;4947;44.526;11.360;2023-03-01T07:27:29;3.30;99.90
9816;DHT22;4947;44.526;11.360;2023-03-01T07:29:59;3.30;99.90
9816;DHT22;4947;44.526;11.360;2023-03-01T07:32:26;3.30;99.90
9816;DHT22;4947;44.526;11.360;2023-03-01T07:34:56;3.30;99.90
9816;DHT22;4947;44.526;11.360;2023-03-01T07:37:24;3.30;99.90
9816;DHT22;4947;44.526;11.360;2023-03-01T07:39:52;3.30;99.90
9816;DHT22;4947;44.526;11.360;2023-03-01T07:42:20;3.40;99.90
9816;DHT22;4947;44.526;11.360;2023-03-01T07:44:48;3.30;99.90
9816;DHT22;4947;44.526;11.360;2023-03-01T07:47:15;3.30;99.90
9816;DHT22;4947;44.526;11.360;2023-03-01T07:49:43;3.40;99.90
9816;DHT22;4947;44.526;11.360;2023-03-01T07:52:13;3.40;99.90
9816;DHT22;4947;44.526;11.360;2023-03-01T07:54:43;3.40;99.90
9816;DHT22;4947;44.526;11.360;2023-03-01T07:57:11;3.30;99.90
9816;DHT22;4947;44.526;11.360;2023-03-01T07:59:39;3.30;99.90
9816;DHT22;4947;44.526;11.360;2023-03-01T08:02:07;3.40;99.90
9816;DHT22;4947;44.526;11.360;2023-03-01T08:04:35;3.40;99.90
9816;DHT22;4947;44.526;11.360;2023-03-01T08:07:05;3.40;99.90
9816;DHT22;4947;44.526;11.360;2023-03-01T08:09:36;3.30;99.90
9816;DHT22;4947;44.526;11.360;2023-03-01T08:12:05;3.30;99.90
9816;DHT22;4947;44.526;11.360;2023-03-01T08:14:32;3.30;99.90
9816;DHT22;4947;44.526;11.360;2023-03-01T08:17:00;3.20;99.90
9816;DHT22;4947;44.526;11.360;2023-03-01T08:19:29;3.20;99.90
9816;DHT22;4947;44.526;11.360;2023-03-01T08:21:56;3.20;99.90
9816;DHT22;4947;44.526;11.360;2023-03-01T08:24:25;3.20;99.90
9816;DHT22;4947;44.526;11.360;2023-03-01T08:26:55;3.20;99.90
9816;DHT22;4947;44.526;11.360;2023-03-01T08:29:22;3.20;99.90
9816;DHT22;4947;44.526;11.360;2023-03-01T08:31:50;3.20;99.90
9816;DHT22;4947;44.526;11.360;2023-03-01T08:34:18;3.20;99.90
9816;DHT22;4947;44.526;11.360;2023-03-01T08:36:46;3.20;99.90
9816;DHT22;4947;44.526;11.360;2023-03-01T08:39:20;3.20;99.90
9816;DHT22;4947;44.526;11.360;2023-03-01T08:41:47;3.20;99.90
9816;DHT22;4947;44.526;11.360;2023-03-01T08:44:17;3.20;99.90
9816;DHT22;4947;44.526;11.360;2023-03-01T08:46:46;3.20;99.90
9816;DHT22;4947;44.526;11.360;2023-03-01T08:49:17;3.20;99.90
9816;DHT22;4947;44.526;11.360;2023-03-01T08:51:46;3.20;99.90
9816;DHT22;4947;44.526;11.360;2023-03-01T08:54:15;3.20;99.90
9816;DHT22;4947;44.526;11.360;2023-03-01T08:56:43;3.20;99.90
9816;DHT22;4947;44.526;11.360;2023-03-01T08:59:12;3.20;99.90
9816;DHT22;4947;44.526;11.360;2023-03-01T09:01:42;3.20;99.90
9816;DHT22;4947;44.526;11.360;2023-03-01T09:04:11;3.20;99.90
9816;DHT22;4947;44.526;11.360;2023-03-01T09:06:39;3.20;99.90
9816;DHT22;4947;44.526;11.360;2023-03-01T09:09:12;3.30;99.90
9816;DHT22;4947;44.526;11.360;2023-03-01T09:11:42;3.30;99.90
9816;DHT22;4947;44.526;11.360;2023-03-01T09:14:10;3.30;99.90
9816;DHT22;4947;44.526;11.360;2023-03-01T09:16:40;3.30;99.90
9816;DHT22;4947;44.526;11.360;2023-03-01T09:19:08;3.20;99.90
9816;DHT22;4947;44.526;11.360;2023-03-01T09:21:37;3.20;99.90
9816;DHT22;4947;44.526;11.360;2023-03-01T09:24:07;3.20;99.90
9816;DHT22;4947;44.526;11.360;2023-03-01T09:26:38;3.30;99.90
9816;DHT22;4947;44.526;11.360;2023-03-01T09:29:06;3.20;99.90
9816;DHT22;4947;44.526;11.360;2023-03-01T09:31:35;3.30;99.90
9816;DHT22;4947;44.526;11.360;2023-03-01T09:34:03;3.30;99.90
9816;DHT22;4947;44.526;11.360;2023-03-01T09:36:31;3.40;99.90
9816;DHT22;4947;44.526;11.360;2023-03-01T09:39:00;3.40;99.90
9816;DHT22;4947;44.526;11.360;2023-03-01T09:41:46;3.40;99.90
9816;DHT22;4947;44.526;11.360;2023-03-01T09:44:21;3.40;99.90
9816;DHT22;4947;44.526;11.360;2023-03-01T09:46:51;3.40;99.90
9816;DHT22;4947;44.526;11.360;2023-03-01T09:49:23;3.30;99.90
9816;DHT22;4947;44.526;11.360;2023-03-01T09:51:58;3.30;99.90
9816;DHT22;4947;44.526;11.360;2023-03-01T09:54:26;3.30;99.90
9816;DHT22;4947;44.526;11.360;2023-03-01T09:57:03;3.30;99.90
9816;DHT22;4947;44.526;11.360;2023-03-01T09:59:40;3.30;99.90
9816;DHT22;4947;44.526;11.360;2023-03-01T10:02:25;3.30;99.90
9816;DHT22;4947;44.526;11.360;2023-03-01T10:05:04;3.30;99.90
9816;DHT22;4947;44.526;11.360;2023-03-01T10:07:39;3.20;99.90
9816;DHT22;4947;44.526;11.360;2023-03-01T10:10:21;3.20;99.90
9816;DHT22;4947;44.526;11.360;2023-03-01T10:12:51;3.20;99.90
9816;DHT22;4947;44.526;11.360;2023-03-01T10:15:25;3.20;99.90
9816;DHT22;4947;44.526;11.360;2023-03-01T10:17:59;3.20;99.90
9816;DHT22;4947;44.526;11.360;2023-03-01T10:20:41;3.20;99.90
9816;DHT22;4947;44.526;11.360;2023-03-01T10:23:10;3.20;99.90
9816;DHT22;4947;44.526;11.360;2023-03-01T10:25:47;3.20;99.90
9816;DHT22;4947;44.526;11.360;2023-03-01T10:28:25;3.20;99.90
9816;DHT22;4947;44.526;11.360;2023-03-01T10:30:53;3.20;99.90
9816;DHT22;4947;44.526;11.360;2023-03-01T10:33:23;3.20;99.90
9816;DHT22;4947;44.526;11.360;2023-03-01T10:35:54;3.30;99.90
9816;DHT22;4947;44.526;11.360;2023-03-01T10:38:22;3.30;99.90
9816;DHT22;4947;44.526;11.360;2023-03-01T10:40:53;3.20;99.90
9816;DHT22;4947;44.526;11.360;2023-03-01T10:43:22;3.30;99.90
9816;DHT22;4947;44.526;11.360;2023-03-01T10:45:51;3.30;99.90
9816;DHT22;4947;44.526;11.360;2023-03-01T10:48:20;3.40;99.90
9816;DHT22;4947;44.526;11.360;2023-03-01T10:50:51;3.40;99.90
9816;DHT22;4947;44.526;11.360;2023-03-01T10:53:35;3.40;99.90
9816;DHT22;4947;44.526;11.360;2023-03-01T10:56:06;3.40;99.90
9816;DHT22;4947;44.526;11.360;2023-03-01T10:58:34;3.50;99.90
9816;DHT22;4947;44.526;11.360;2023-03-01T11:01:04;3.50;99.90
9816;DHT22;4947;44.526;11.360;2023-03-01T11:03:33;3.40;99.90
9816;DHT22;4947;44.526;11.360;2023-03-01T11:06:04;3.40;99.90
9816;DHT22;4947;44.526;11.360;2023-03-01T11:08:36;3.40;99.90
9816;DHT22;4947;44.526;11.360;2023-03-01T11:11:06;3.40;99.90
9816;DHT22;4947;44.526;11.360;2023-03-01T11:13:35;3.40;99.90
9816;DHT22;4947;44.526;11.360;2023-03-01T11:16:05;3.40;99.90
9816;DHT22;4947;44.526;11.360;2023-03-01T11:18:33;3.30;99.90
9816;DHT22;4947;44.526;11.360;2023-03-01T11:21:01;3.30;99.90
9816;DHT22;4947;44.526;11.360;2023-03-01T11:23:34;3.30;99.90
9816;DHT22;4947;44.526;11.360;2023-03-01T11:26:07;3.20;99.90
9816;DHT22;4947;44.526;11.360;2023-03-01T11:28:38;3.20;99.90
9816;DHT22;4947;44.526;11.360;2023-03-01T11:31:09;3.20;99.90
9816;DHT22;4947;44.526;11.360;2023-03-01T11:33:43;3.20;99.90
9816;DHT22;4947;44.526;11.360;2023-03-01T11:36:18;3.20;99.90
9816;DHT22;4947;44.526;11.360;2023-03-01T11:38:49;3.10;99.90
9816;DHT22;4947;44.526;11.360;2023-03-01T11:41:19;3.00;99.90
9816;DHT22;4947;44.526;11.360;2023-03-01T11:43:51;2.90;99.90
9816;DHT22;4947;44.526;11.360;2023-03-01T11:46:49;2.90;99.90
9816;DHT22;4947;44.526;11.360;2023-03-01T11:49:39;2.90;99.90
9816;DHT22;4947;44.526;11.360;2023-03-01T11:52:16;2.80;99.90
9816;DHT22;4947;44.526;11.360;2023-03-01T11:54:57;2.80;99.90
9816;DHT22;4947;44.526;11.360;2023-03-01T11:57:43;2.80;99.90
9816;DHT22;4947;44.526;11.360;2023-03-01T12:00:23;2.80;99.90
9816;DHT22;4947;44.526;11.360;2023-03-01T12:03:22;2.60;99.90
9816;DHT22;4947;44.526;11.360;2023-03-01T12:06:10;2.40;99.90
9816;DHT22;4947;44.526;11.360;2023-03-01T12:08:42;2.40;99.90
9816;DHT22;4947;44.526;11.360;2023-03-01T12:11:23;2.40;99.90
9816;DHT22;4947;44.526;11.360;2023-03-01T12:20:28;2.20;99.90
9816;DHT22;4947;44.526;11.360;2023-03-01T12:23:26;2.10;99.90
9816;DHT22;4947;44.526;11.360;2023-03-01T12:26:06;2.00;99.90
9816;DHT22;4947;44.526;11.360;2023-03-01T12:29:07;1.80;99.90
9816;DHT22;4947;44.526;11.360;2023-03-01T12:34:37;1.50;99.90
9816;DHT22;4947;44.526;11.360;2023-03-01T12:37:22;1.30;99.90
9816;DHT22;4947;44.526;11.360;2023-03-01T12:40:11;1.30;99.90
9816;DHT22;4947;44.526;11.360;2023-03-01T12:42:48;1.20;99.90
9816;DHT22;4947;44.526;11.360;2023-03-01T12:45:35;1.10;99.90
9816;DHT22;4947;44.526;11.360;2023-03-01T12:48:17;1.00;99.90
9816;DHT22;4947;44.526;11.360;2023-03-01T12:50:50;1.00;99.90
9816;DHT22;4947;44.526;11.360;2023-03-01T12:53:27;0.90;99.90
9816;DHT22;4947;44.526;11.360;2023-03-01T12:55:58;0.90;99.90
9816;DHT22;4947;44.526;11.360;2023-03-01T12:58:32;0.90;99.90
9816;DHT22;4947;44.526;11.360;2023-03-01T13:01:11;0.90;99.90
9816;DHT22;4947;44.526;11.360;2023-03-01T13:04:07;0.80;99.90
9816;DHT22;4947;44.526;11.360;2023-03-01T13:06:43;0.80;99.90
9816;DHT22;4947;44.526;11.360;2023-03-01T13:09:20;0.80;99.90
9816;DHT22;4947;44.526;11.360;2023-03-01T13:11:51;0.80;99.90
9816;DHT22;4947;44.526;11.360;2023-03-01T13:14:45;0.90;99.90
9816;DHT22;4947;44.526;11.360;2023-03-01T13:17:41;0.80;99.90
9816;DHT22;4947;44.526;11.360;2023-03-01T13:20:16;0.80;99.90
9816;DHT22;4947;44.526;11.360;2023-03-01T13:22:45;0.80;99.90
9816;DHT22;4947;44.526;11.360;2023-03-01T13:25:16;0.80;99.90
9816;DHT22;4947;44.526;11.360;2023-03-01T13:27:45;0.80;99.90
9816;DHT22;4947;44.526;11.360;2023-03-01T13:30:39;0.90;99.90
9816;DHT22;4947;44.526;11.360;2023-03-01T13:33:51;0.90;99.90
9816;DHT22;4947;44.526;11.360;2023-03-01T13:36:46;0.80;99.90
9816;DHT22;4947;44.526;11.360;2023-03-01T13:39:31;0.90;99.90
9816;DHT22;4947;44.526;11.360;2023-03-01T13:42:35;0.90;99.90
9816;DHT22;4947;44.526;11.360;2023-03-01T13:45:04;0.90;99.90
9816;DHT22;4947;44.526;11.360;2023-03-01T13:47:34;1.00;99.90
9816;DHT22;4947;44.526;11.360;2023-03-01T13:50:07;1.00;99.90
9816;DHT22;4947;44.526;11.360;2023-03-01T13:52:43;1.00;99.90
9816;DHT22;4947;44.526;11.360;2023-03-01T13:55:18;1.10;99.90
9816;DHT22;4947;44.526;11.360;2023-03-01T13:57:49;1.10;99.90
9816;DHT22;4947;44.526;11.360;2023-03-01T14:00:30;1.10;99.90
9816;DHT22;4947;44.526;11.360;2023-03-01T14:03:04;1.10;99.90
9816;DHT22;4947;44.526;11.360;2023-03-01T14:05:34;1.10;99.90
9816;DHT22;4947;44.526;11.360;2023-03-01T14:08:03;1.20;99.90
9816;DHT22;4947;44.526;11.360;2023-03-01T14:10:37;1.20;99.90
9816;DHT22;4947;44.526;11.360;2023-03-01T14:13:22;1.20;99.90
9816;DHT22;4947;44.526;11.360;2023-03-01T14:16:05;1.30;99.90
9816;DHT22;4947;44.526;11.360;2023-03-01T14:18:46;1.30;99.90
9816;DHT22;4947;44.526;11.360;2023-03-01T14:21:16;1.30;99.90
9816;DHT22;4947;44.526;11.360;2023-03-01T14:23:44;1.30;99.90
9816;DHT22;4947;44.526;11.360;2023-03-01T14:26:12;1.30;99.90
9816;DHT22;4947;44.526;11.360;2023-03-01T14:28:42;1.30;99.90
9816;DHT22;4947;44.526;11.360;2023-03-01T14:31:32;1.30;99.90
9816;DHT22;4947;44.526;11.360;2023-03-01T14:34:01;1.30;99.90
9816;DHT22;4947;44.526;11.360;2023-03-01T14:36:32;1.30;99.90
9816;DHT22;4947;44.526;11.360;2023-03-01T14:39:16;1.30;99.90
9816;DHT22;4947;44.526;11.360;2023-03-01T14:41:49;1.30;99.90
9816;DHT22;4947;44.526;11.360;2023-03-01T14:44:20;1.40;99.90
9816;DHT22;4947;44.526;11.360;2023-03-01T14:46:52;1.40;99.90
9816;DHT22;4947;44.526;11.360;2023-03-01T14:49:22;1.40;99.90
9816;DHT22;4947;44.526;11.360;2023-03-01T14:51:55;1.40;99.90
9816;DHT22;4947;44.526;11.360;2023-03-01T14:54:26;1.40;99.90
9816;DHT22;4947;44.526;11.360;2023-03-01T14:56:58;1.40;99.90
9816;DHT22;4947;44.526;11.360;2023-03-01T14:59:26;1.40;99.90
9816;DHT22;4947;44.526;11.360;2023-03-01T15:01:57;1.50;99.90
9816;DHT22;4947;44.526;11.360;2023-03-01T15:04:26;1.50;99.90
9816;DHT22;4947;44.526;11.360;2023-03-01T15:06:57;1.50;99.90
9816;DHT22;4947;44.526;11.360;2023-03-01T15:09:32;1.50;99.90
9816;DHT22;4947;44.526;11.360;2023-03-01T15:15:26;1.50;99.90
9816;DHT22;4947;44.526;11.360;2023-03-01T15:17:58;1.50;99.90
9816;DHT22;4947;44.526;11.360;2023-03-01T15:20:28;1.50;99.90
9816;DHT22;4947;44.526;11.360;2023-03-01T15:22:57;1.60;99.90
9816;DHT22;4947;44.526;11.360;2023-03-01T15:25:27;1.60;99.90
9816;DHT22;4947;44.526;11.360;2023-03-01T15:27:57;1.60;99.90
9816;DHT22;4947;44.526;11.360;2023-03-01T15:30:27;1.60;99.90
9816;DHT22;4947;44.526;11.360;2023-03-01T15:33:19;1.70;99.90
9816;DHT22;4947;44.526;11.360;2023-03-01T15:35:50;1.70;99.90
9816;DHT22;4947;44.526;11.360;2023-03-01T15:38:26;1.60;99.90
9816;DHT22;4947;44.526;11.360;2023-03-01T15:40:55;1.70;99.90
9816;DHT22;4947;44.526;11.360;2023-03-01T15:43:42;1.70;99.90
9816;DHT22;4947;44.526;11.360;2023-03-01T15:46:22;1.70;99.90
9816;DHT22;4947;44.526;11.360;2023-03-01T15:48:53;1.70;99.90
9816;DHT22;4947;44.526;11.360;2023-03-01T15:51:36;1.70;99.90
9816;DHT22;4947;44.526;11.360;2023-03-01T15:54:11;1.70;99.90
9816;DHT22;4947;44.526;11.360;2023-03-01T15:56:42;1.70;99.90
9816;DHT22;4947;44.526;11.360;2023-03-01T15:59:11;1.70;99.90
9816;DHT22;4947;44.526;11.360;2023-03-01T16:01:39;1.70;99.90
9816;DHT22;4947;44.526;11.360;2023-03-01T16:04:09;1.70;99.90
9816;DHT22;4947;44.526;11.360;2023-03-01T16:06:46;1.70;99.90
9816;DHT22;4947;44.526;11.360;2023-03-01T16:09:22;1.70;99.90
9816;DHT22;4947;44.526;11.360;2023-03-01T16:11:51;1.70;99.90
9816;DHT22;4947;44.526;11.360;2023-03-01T16:14:19;1.70;99.90
9816;DHT22;4947;44.526;11.360;2023-03-01T16:16:48;1.70;99.90
9816;DHT22;4947;44.526;11.360;2023-03-01T16:19:16;1.70;99.90
9816;DHT22;4947;44.526;11.360;2023-03-01T16:21:43;1.80;99.90
9816;DHT22;4947;44.526;11.360;2023-03-01T16:24:12;1.80;99.90
9816;DHT22;4947;44.526;11.360;2023-03-01T16:26:42;1.80;99.90
9816;DHT22;4947;44.526;11.360;2023-03-01T16:29:09;1.80;99.90
9816;DHT22;4947;44.526;11.360;2023-03-01T16:31:38;1.80;99.90
9816;DHT22;4947;44.526;11.360;2023-03-01T16:34:05;1.80;99.90
9816;DHT22;4947;44.526;11.360;2023-03-01T16:36:34;1.80;99.90
9816;DHT22;4947;44.526;11.360;2023-03-01T16:39:02;1.90;99.90
9816;DHT22;4947;44.526;11.360;2023-03-01T16:41:30;1.90;99.90
9816;DHT22;4947;44.526;11.360;2023-03-01T16:43:59;1.90;99.90
9816;DHT22;4947;44.526;11.360;2023-03-01T16:46:28;1.90;99.90